createdAt,value
2023-04-23T00:01:27.944Z,8.16
2023-04-23T00:03:58.183Z,8.18
2023-04-23T00:06:26.880Z,8.14
2023-04-23T00:08:55.391Z,8.12
2023-04-23T00:11:22.826Z,8.05
2023-04-23T00:13:50.156Z,8.00
2023-04-23T00:16:19.693Z,7.98
2023-04-23T00:18:47.248Z,7.98
2023-04-23T00:21:15.188Z,8.00
2023-04-23T00:23:42.093Z,7.97
2023-04-23T00:26:08.923Z,7.95
2023-04-23T00:28:35.710Z,7.96
2023-04-23T00:31:02.593Z,8.01
2023-04-23T00:33:29.514Z,7.98
2023-04-23T00:35:56.335Z,7.96
2023-04-23T00:38:23.259Z,7.93
2023-04-23T00:40:50.280Z,7.94
2023-04-23T00:43:17.771Z,7.92
2023-04-23T00:45:44.846Z,7.93
2023-04-23T00:48:12.386Z,7.89
2023-04-23T00:50:39.261Z,7.87
2023-04-23T00:53:06.085Z,7.84
2023-04-23T00:55:34.087Z,7.82
2023-04-23T00:58:01.250Z,7.89
2023-04-23T01:00:28.441Z,7.90
2023-04-23T01:02:55.986Z,7.88
2023-04-23T01:05:24.269Z,7.86
2023-04-23T01:07:51.628Z,7.85
2023-04-23T01:10:18.800Z,7.83
2023-04-23T01:12:48.919Z,7.81
2023-04-23T01:15:17.081Z,7.79
2023-04-23T01:17:43.956Z,7.79
2023-04-23T01:20:11.414Z,7.82
2023-04-23T01:22:38.434Z,7.81
2023-04-23T01:25:08.001Z,7.79
2023-04-23T01:27:36.145Z,7.86
2023-04-23T01:30:05.985Z,7.89
2023-04-23T01:32:35.424Z,7.92
2023-04-23T01:35:04.810Z,7.95
2023-04-23T01:37:33.406Z,8.01
2023-04-23T01:40:00.963Z,8.02
2023-04-23T01:42:28.002Z,8.01
2023-04-23T01:44:55.028Z,8.02
2023-04-23T01:47:22.181Z,8.01
2023-04-23T01:49:49.432Z,8.02
2023-04-23T01:52:16.290Z,8.00
2023-04-23T01:54:43.438Z,7.98
2023-04-23T01:57:10.966Z,7.98
2023-04-23T01:59:38.763Z,8.00
2023-04-23T02:02:05.739Z,8.02
2023-04-23T02:04:34.425Z,8.03
2023-04-23T02:07:01.335Z,8.00
2023-04-23T02:09:28.239Z,7.98
2023-04-23T02:11:55.148Z,8.01
2023-04-23T02:14:22.202Z,8.00
2023-04-23T02:16:49.674Z,7.99
2023-04-23T02:19:17.435Z,7.97
2023-04-23T02:21:44.403Z,7.93
2023-04-23T02:24:11.878Z,7.90
2023-04-23T02:26:38.709Z,7.91
2023-04-23T02:29:05.775Z,7.92
2023-04-23T02:31:32.678Z,7.92
2023-04-23T02:33:59.623Z,7.90
2023-04-23T02:36:28.761Z,7.89
2023-04-23T02:38:55.538Z,7.89
2023-04-23T02:41:22.473Z,7.83
2023-04-23T02:43:49.648Z,7.81
2023-04-23T02:46:16.558Z,7.83
2023-04-23T02:48:43.441Z,7.86
2023-04-23T02:51:13.431Z,7.89
2023-04-23T02:53:40.468Z,7.93
2023-04-23T02:56:07.845Z,7.97
2023-04-23T02:58:35.357Z,7.95
2023-04-23T03:01:03.362Z,7.94
2023-04-23T03:03:33.949Z,7.93
2023-04-23T03:06:04.403Z,7.92
2023-04-23T03:08:31.498Z,7.93
2023-04-23T03:10:58.486Z,7.95
2023-04-23T03:13:26.958Z,7.98
2023-04-23T03:15:56.284Z,8.01
2023-04-23T03:18:23.298Z,8.05
2023-04-23T03:20:53.201Z,8.13
2023-04-23T03:23:20.050Z,8.22
2023-04-23T03:25:47.921Z,8.24
2023-04-23T03:28:14.905Z,8.29
2023-04-23T03:30:42.035Z,8.32
2023-04-23T03:33:09.521Z,8.36
2023-04-23T03:35:36.430Z,8.35
2023-04-23T03:38:05.964Z,8.34
2023-04-23T03:40:36.479Z,8.33
2023-04-23T03:43:06.002Z,8.36
2023-04-23T03:46:08.409Z,8.39
2023-04-23T03:48:38.794Z,8.35
2023-04-23T03:51:11.636Z,8.34
2023-04-23T03:53:43.155Z,8.32
2023-04-23T03:56:28.218Z,8.39
2023-04-23T03:59:12.063Z,8.42
2023-04-23T04:01:38.911Z,8.42
2023-04-23T04:04:05.996Z,8.41
2023-04-23T04:06:33.535Z,8.46
2023-04-23T04:09:00.534Z,8.54
2023-04-23T04:11:28.126Z,8.59
2023-04-23T04:13:54.929Z,8.61
2023-04-23T04:16:21.824Z,8.67
2023-04-23T04:18:48.614Z,8.73
2023-04-23T04:21:17.228Z,8.69
2023-04-23T04:23:45.790Z,8.67
2023-04-23T04:26:13.238Z,8.72
2023-04-23T04:28:40.055Z,8.76
2023-04-23T04:31:08.650Z,8.87
2023-04-23T04:33:36.079Z,8.92
2023-04-23T04:36:03.593Z,8.96
2023-04-23T04:38:30.452Z,8.96
2023-04-23T04:41:01.684Z,9.00
2023-04-23T04:43:28.448Z,9.08
2023-04-23T04:45:55.491Z,9.17
2023-04-23T04:48:22.296Z,9.18
2023-04-23T04:50:49.132Z,9.14
2023-04-23T04:53:16.578Z,9.08
2023-04-23T04:55:44.358Z,9.07
2023-04-23T04:58:11.212Z,8.98
2023-04-23T05:00:38.375Z,9.02
2023-04-23T05:03:05.451Z,9.00
2023-04-23T05:05:33.313Z,8.93
2023-04-23T05:08:02.129Z,8.91
2023-04-23T05:10:29.928Z,8.92
2023-04-23T05:12:57.971Z,8.94
2023-04-23T05:15:24.864Z,9.15
2023-04-23T05:17:53.627Z,9.50
2023-04-23T05:20:21.847Z,9.83
2023-04-23T05:22:48.722Z,9.94
2023-04-23T05:25:15.781Z,9.95
2023-04-23T05:27:42.603Z,9.98
2023-04-23T05:30:11.351Z,9.83
2023-04-23T05:32:39.042Z,9.60
2023-04-23T05:35:07.075Z,9.46
2023-04-23T05:37:34.321Z,9.47
2023-04-23T05:40:02.779Z,9.62
2023-04-23T05:42:29.643Z,9.83
2023-04-23T05:44:56.474Z,9.93
2023-04-23T05:47:23.393Z,9.91
2023-04-23T05:49:50.255Z,9.94
2023-04-23T05:52:17.784Z,10.02
2023-04-23T05:54:44.750Z,10.13
2023-04-23T05:57:12.573Z,10.16
2023-04-23T05:59:39.440Z,10.14
2023-04-23T06:02:08.358Z,10.10
2023-04-23T06:04:36.362Z,10.14
2023-04-23T06:07:04.670Z,10.17
2023-04-23T06:09:31.530Z,10.25
2023-04-23T06:12:00.200Z,10.39
2023-04-23T06:14:27.001Z,10.57
2023-04-23T06:16:53.808Z,10.76
2023-04-23T06:19:20.586Z,10.86
2023-04-23T06:21:47.376Z,10.86
2023-04-23T06:24:14.256Z,10.85
2023-04-23T06:26:40.997Z,10.95
2023-04-23T06:29:14.096Z,11.05
2023-04-23T06:32:04.998Z,11.46
2023-04-23T06:34:31.973Z,11.64
2023-04-23T06:36:58.919Z,11.74
2023-04-23T06:39:25.771Z,11.79
2023-04-23T06:41:52.876Z,12.09
2023-04-23T06:44:30.691Z,12.39
2023-04-23T06:46:57.478Z,12.55
2023-04-23T06:49:24.644Z,12.60
2023-04-23T06:51:51.628Z,12.61
2023-04-23T06:54:18.431Z,12.72
2023-04-23T06:56:45.678Z,12.99
2023-04-23T06:59:12.571Z,13.07
2023-04-23T07:01:48.232Z,13.12
2023-04-23T07:04:15.048Z,13.07
2023-04-23T07:06:41.892Z,13.19
2023-04-23T07:09:09.132Z,13.22
2023-04-23T07:11:37.075Z,13.31
2023-04-23T07:14:04.110Z,13.43
2023-04-23T07:16:33.720Z,13.57
2023-04-23T07:19:04.302Z,13.72
2023-04-23T07:21:31.272Z,14.09
2023-04-23T07:24:06.639Z,14.29
2023-04-23T07:26:34.866Z,14.53
2023-04-23T07:29:02.993Z,14.97
2023-04-23T07:31:29.852Z,15.32
2023-04-23T07:33:57.019Z,15.53
2023-04-23T07:36:23.904Z,15.76
2023-04-23T07:38:51.118Z,16.01
2023-04-23T07:41:18.679Z,16.34
2023-04-23T07:43:45.949Z,16.50
2023-04-23T07:46:12.869Z,16.69
2023-04-23T07:48:39.822Z,16.91
2023-04-23T07:51:06.920Z,16.98
2023-04-23T07:53:35.062Z,16.91
2023-04-23T07:56:02.562Z,16.98
2023-04-23T07:58:29.661Z,17.07
2023-04-23T08:00:56.544Z,17.08
2023-04-23T08:03:24.305Z,17.10
2023-04-23T08:05:51.363Z,17.20
2023-04-23T08:08:18.167Z,17.11
2023-04-23T08:10:46.198Z,16.93
2023-04-23T08:13:13.082Z,16.83
2023-04-23T08:15:40.084Z,16.79
2023-04-23T08:18:07.090Z,16.83
2023-04-23T08:20:34.773Z,17.10
2023-04-23T08:23:01.755Z,17.35
2023-04-23T08:25:28.563Z,17.28
2023-04-23T08:27:55.357Z,17.13
2023-04-23T08:30:22.315Z,16.95
2023-04-23T08:32:53.988Z,16.83
2023-04-23T08:35:22.311Z,16.87
2023-04-23T08:37:49.228Z,16.97
2023-04-23T08:40:17.095Z,17.16
2023-04-23T08:42:57.314Z,17.48
2023-04-23T08:45:26.794Z,17.70
2023-04-23T08:48:01.582Z,17.78
2023-04-23T08:50:30.089Z,17.61
2023-04-23T08:52:58.467Z,17.65
2023-04-23T08:55:26.287Z,17.41
2023-04-23T08:57:53.256Z,17.64
2023-04-23T09:00:26.080Z,17.88
2023-04-23T09:02:53.822Z,18.01
2023-04-23T09:05:20.858Z,17.93
2023-04-23T09:07:47.969Z,17.67
2023-04-23T09:10:18.266Z,17.51
2023-04-23T09:12:46.744Z,17.43
2023-04-23T09:15:14.083Z,17.45
2023-04-23T09:17:46.786Z,17.47
2023-04-23T09:20:15.249Z,17.56
2023-04-23T09:22:43.729Z,17.58
2023-04-23T09:25:15.104Z,17.58
2023-04-23T09:27:42.337Z,17.40
2023-04-23T09:30:11.937Z,17.17
2023-04-23T09:32:44.057Z,17.15
2023-04-23T09:35:14.081Z,17.15
2023-04-23T09:37:43.767Z,17.21
2023-04-23T09:40:15.295Z,17.49
2023-04-23T09:42:55.868Z,17.91
2023-04-23T09:45:25.951Z,18.50
2023-04-23T09:47:59.395Z,18.67
2023-04-23T09:50:39.596Z,18.48
2023-04-23T09:53:09.113Z,17.98
2023-04-23T09:55:38.975Z,17.82
2023-04-23T09:58:12.021Z,17.97
2023-04-23T10:00:40.779Z,18.12
2023-04-23T10:03:09.691Z,18.03
2023-04-23T10:05:59.803Z,17.76
2023-04-23T10:08:28.958Z,17.74
2023-04-23T10:11:06.624Z,17.57
2023-04-23T10:13:38.004Z,17.41
2023-04-23T10:16:20.779Z,17.28
2023-04-23T10:18:52.454Z,17.37
2023-04-23T10:21:20.754Z,17.35
2023-04-23T10:23:51.391Z,17.27
2023-04-23T10:26:23.901Z,17.16
2023-04-23T10:28:54.871Z,17.15
2023-04-23T10:31:23.575Z,17.21
2023-04-23T10:33:58.615Z,17.32
2023-04-23T10:36:27.742Z,17.55
2023-04-23T10:38:59.150Z,17.83
2023-04-23T10:41:37.809Z,17.90
2023-04-23T10:44:07.265Z,17.94
2023-04-23T10:46:37.175Z,17.84
2023-04-23T10:49:15.150Z,17.70
2023-04-23T10:52:18.055Z,17.61
2023-04-23T10:54:34.888Z,17.67
2023-04-23T10:57:04.530Z,17.67
2023-04-23T10:59:38.620Z,17.59
2023-04-23T11:02:07.756Z,17.57
2023-04-23T11:04:37.217Z,17.63
2023-04-23T11:07:10.001Z,17.63
2023-04-23T11:09:39.649Z,17.59
2023-04-23T11:12:31.832Z,17.66
2023-04-23T11:14:59.953Z,17.75
2023-04-23T11:17:33.646Z,17.88
2023-04-23T11:20:13.412Z,18.00
2023-04-23T11:22:45.761Z,18.05
2023-04-23T11:25:21.133Z,17.92
2023-04-23T11:27:50.329Z,17.86
2023-04-23T11:30:24.041Z,17.78
2023-04-23T11:32:54.556Z,17.71
2023-04-23T11:35:24.740Z,17.64
2023-04-23T11:37:51.750Z,17.55
2023-04-23T11:40:20.152Z,17.49
2023-04-23T11:42:54.548Z,17.41
2023-04-23T11:45:29.773Z,17.31
2023-04-23T11:47:59.132Z,17.25
2023-04-23T11:50:27.765Z,17.31
2023-04-23T11:52:55.317Z,17.39
2023-04-23T11:55:23.782Z,17.41
2023-04-23T11:57:53.058Z,17.49
2023-04-23T12:00:26.469Z,17.61
2023-04-23T12:03:02.141Z,17.83
2023-04-23T12:05:37.333Z,18.09
2023-04-23T12:08:15.114Z,18.09
2023-04-23T12:11:03.528Z,18.07
2023-04-23T12:13:35.634Z,18.00
2023-04-23T12:16:04.850Z,17.90
2023-04-23T12:18:41.438Z,17.98
2023-04-23T12:21:11.126Z,18.21
2023-04-23T12:23:44.642Z,18.38
2023-04-23T12:26:15.489Z,18.66
2023-04-23T12:28:51.204Z,19.01
2023-04-23T12:31:24.275Z,19.32
2023-04-23T12:34:08.772Z,19.53
2023-04-23T12:36:37.412Z,19.34
2023-04-23T12:39:31.763Z,18.95
2023-04-23T12:42:06.566Z,18.66
2023-04-23T12:44:35.797Z,18.52
2023-04-23T12:47:05.423Z,18.58
2023-04-23T12:49:34.607Z,18.56
2023-04-23T12:52:04.397Z,18.52
2023-04-23T12:54:38.729Z,18.33
2023-04-23T12:57:14.194Z,18.26
2023-04-23T12:59:41.331Z,18.13
2023-04-23T13:02:09.921Z,17.94
2023-04-23T13:04:37.182Z,17.88
2023-04-23T13:07:04.208Z,17.86
2023-04-23T13:09:31.301Z,17.95
2023-04-23T13:12:00.366Z,17.96
2023-04-23T13:14:28.173Z,17.89
2023-04-23T13:16:55.198Z,17.87
2023-04-23T13:19:21.996Z,17.87
2023-04-23T13:21:48.967Z,17.82
2023-04-23T13:24:16.178Z,17.76
2023-04-23T13:26:43.079Z,17.82
2023-04-23T13:29:09.964Z,17.79
2023-04-23T13:31:36.828Z,17.87
2023-04-23T13:34:04.772Z,17.95
2023-04-23T13:36:31.603Z,18.01
2023-04-23T13:38:58.456Z,18.01
2023-04-23T13:41:25.318Z,18.01
2023-04-23T13:43:52.795Z,17.97
2023-04-23T13:46:20.345Z,17.92
2023-04-23T13:48:47.172Z,17.89
2023-04-23T13:51:26.482Z,17.82
2023-04-23T13:54:00.979Z,17.72
2023-04-23T13:56:30.129Z,17.68
2023-04-23T13:59:18.320Z,17.55
2023-04-23T14:01:49.516Z,17.45
2023-04-23T14:04:17.806Z,17.36
2023-04-23T14:06:45.428Z,17.29
2023-04-23T14:09:12.412Z,17.22
2023-04-23T14:11:40.606Z,17.18
2023-04-23T14:14:08.051Z,17.13
2023-04-23T14:16:35.521Z,16.98
2023-04-23T14:19:02.530Z,16.52
2023-04-23T14:21:29.408Z,15.93
2023-04-23T14:24:08.217Z,15.59
2023-04-23T14:26:47.972Z,15.29
2023-04-23T14:29:46.700Z,15.01
2023-04-23T14:32:14.213Z,14.87
2023-04-23T14:34:41.073Z,14.75
2023-04-23T14:37:08.084Z,14.57
2023-04-23T14:39:35.003Z,14.39
2023-04-23T14:42:02.632Z,14.27
2023-04-23T14:44:29.841Z,14.13
2023-04-23T14:46:56.852Z,13.90
2023-04-23T14:49:24.545Z,13.63
2023-04-23T14:51:57.986Z,13.42
2023-04-23T14:54:24.983Z,13.21
2023-04-23T14:56:52.157Z,12.94
2023-04-23T14:59:18.958Z,12.59
2023-04-23T15:01:45.922Z,12.31
2023-04-23T15:04:13.179Z,12.15
2023-04-23T15:06:42.915Z,11.97
2023-04-23T15:09:09.687Z,11.81
2023-04-23T15:11:37.927Z,11.70
2023-04-23T15:14:32.460Z,11.66
2023-04-23T15:16:59.535Z,11.65
2023-04-23T15:19:26.442Z,11.63
2023-04-23T15:21:53.254Z,11.59
2023-04-23T15:24:20.060Z,11.55
2023-04-23T15:26:47.033Z,11.51
2023-04-23T15:29:14.131Z,11.46
2023-04-23T15:31:42.233Z,11.43
2023-04-23T15:34:09.738Z,11.39
2023-04-23T15:36:37.941Z,11.35
2023-04-23T15:39:07.083Z,11.32
2023-04-23T15:41:39.526Z,11.36
2023-04-23T15:44:11.643Z,11.36
2023-04-23T15:46:38.966Z,11.32
2023-04-23T15:49:06.119Z,11.29
2023-04-23T15:51:36.239Z,11.26
2023-04-23T15:54:03.100Z,11.25
2023-04-23T15:56:30.125Z,11.17
2023-04-23T15:58:57.058Z,11.14
2023-04-23T16:01:26.862Z,11.14
2023-04-23T16:04:08.584Z,11.20
2023-04-23T16:06:36.897Z,11.25
2023-04-23T16:09:06.721Z,11.27
2023-04-23T16:11:36.322Z,11.32
2023-04-23T16:14:04.245Z,11.35
2023-04-23T16:16:31.308Z,11.41
2023-04-23T16:18:58.229Z,11.45
2023-04-23T16:21:25.065Z,11.49
2023-04-23T16:23:52.030Z,11.54
2023-04-23T16:26:18.996Z,11.56
2023-04-23T16:28:51.968Z,11.60
2023-04-23T16:31:28.666Z,11.59
2023-04-23T16:33:56.377Z,11.60
2023-04-23T16:36:23.448Z,11.60
2023-04-23T16:38:50.440Z,11.56
2023-04-23T16:41:19.179Z,11.58
2023-04-23T16:43:49.393Z,11.62
2023-04-23T16:46:16.587Z,11.65
2023-04-23T16:48:45.481Z,11.65
2023-04-23T16:51:13.686Z,11.63
2023-04-23T16:53:40.660Z,11.64
2023-04-23T16:56:08.182Z,11.63
2023-04-23T16:58:36.077Z,11.62
2023-04-23T17:01:02.935Z,11.63
2023-04-23T17:03:30.056Z,11.71
2023-04-23T17:06:29.412Z,11.73
2023-04-23T17:08:59.072Z,11.82
2023-04-23T17:11:27.778Z,11.86
2023-04-23T17:13:56.138Z,11.94
2023-04-23T17:16:27.198Z,12.00
2023-04-23T17:18:55.143Z,12.04
2023-04-23T17:21:23.038Z,12.06
2023-04-23T17:23:49.978Z,12.08
2023-04-23T17:26:16.761Z,12.10
2023-04-23T17:28:43.654Z,12.10
2023-04-23T17:31:11.348Z,12.18
2023-04-23T17:33:38.788Z,12.25
2023-04-23T17:36:06.005Z,12.29
2023-04-23T17:38:32.909Z,12.24
2023-04-23T17:41:00.006Z,12.21
2023-04-23T17:43:27.336Z,12.20
2023-04-23T17:45:54.220Z,12.19
2023-04-23T17:48:23.090Z,12.15
2023-04-23T17:50:50.466Z,12.13
2023-04-23T17:53:17.990Z,12.08
2023-04-23T17:55:44.777Z,12.09
2023-04-23T17:58:11.725Z,12.06
2023-04-23T18:00:42.369Z,12.02
2023-04-23T18:03:11.230Z,11.96
2023-04-23T18:05:38.092Z,11.91
2023-04-23T18:08:06.963Z,11.84
2023-04-23T18:10:34.248Z,11.73
2023-04-23T18:13:09.117Z,11.68
2023-04-23T18:15:36.191Z,11.61
2023-04-23T18:18:03.368Z,11.55
2023-04-23T18:20:31.906Z,11.51
2023-04-23T18:22:59.420Z,11.47
2023-04-23T18:25:27.185Z,11.47
2023-04-23T18:27:54.009Z,11.45
2023-04-23T18:30:23.406Z,11.40
2023-04-23T18:33:13.046Z,11.39
2023-04-23T18:35:43.552Z,11.36
2023-04-23T18:38:23.116Z,11.31
2023-04-23T18:40:49.934Z,11.30
2023-04-23T18:43:16.849Z,11.26
2023-04-23T18:45:43.637Z,11.23
2023-04-23T18:48:35.126Z,11.19
2023-04-23T18:51:21.478Z,11.16
2023-04-23T18:53:49.067Z,11.14
2023-04-23T18:56:16.007Z,11.16
2023-04-23T18:58:42.853Z,11.14
2023-04-23T19:01:09.806Z,11.12
2023-04-23T19:03:37.110Z,11.17
2023-04-23T19:06:07.436Z,11.28
2023-04-23T19:08:37.932Z,11.17
2023-04-23T19:11:06.295Z,11.06
2023-04-23T19:13:33.103Z,10.98
2023-04-23T19:16:00.029Z,10.93
2023-04-23T19:18:27.675Z,10.86
2023-04-23T19:20:54.618Z,10.75
2023-04-23T19:23:21.618Z,10.63
2023-04-23T19:25:48.455Z,10.55
2023-04-23T19:28:15.538Z,10.47
2023-04-23T19:30:42.405Z,10.40
2023-04-23T19:33:09.305Z,10.33
2023-04-23T19:35:39.278Z,10.35
2023-04-23T19:38:06.797Z,10.35
2023-04-23T19:40:33.716Z,10.31
2023-04-23T19:43:00.564Z,10.26
2023-04-23T19:45:27.386Z,10.33
2023-04-23T19:47:54.233Z,10.38
2023-04-23T19:50:21.445Z,10.51
2023-04-23T19:52:48.527Z,10.54
2023-04-23T19:55:15.636Z,10.45
2023-04-23T19:57:42.425Z,10.20
2023-04-23T20:00:14.320Z,9.99
2023-04-23T20:02:41.599Z,9.85
2023-04-23T20:05:12.174Z,9.76
2023-04-23T20:07:39.356Z,9.75
2023-04-23T20:10:07.516Z,9.71
2023-04-23T20:12:34.984Z,9.73
2023-04-23T20:15:02.206Z,9.70
2023-04-23T20:17:30.096Z,9.64
2023-04-23T20:20:01.706Z,9.62
2023-04-23T20:22:29.821Z,9.63
2023-04-23T20:24:57.798Z,9.61
2023-04-23T20:27:26.324Z,9.57
2023-04-23T20:29:56.375Z,9.53
2023-04-23T20:32:25.811Z,9.50
2023-04-23T20:34:52.852Z,9.44
2023-04-23T20:37:22.387Z,9.37
2023-04-23T20:39:49.983Z,9.34
2023-04-23T20:42:17.030Z,9.32
2023-04-23T20:44:46.921Z,9.33
2023-04-23T20:47:16.353Z,9.34
2023-04-23T20:49:43.597Z,9.36
2023-04-23T20:52:10.724Z,9.36
2023-04-23T20:54:37.544Z,9.29
2023-04-23T20:57:04.676Z,9.20
2023-04-23T20:59:31.530Z,9.15
2023-04-23T21:01:58.546Z,9.12
2023-04-23T21:04:25.684Z,9.08
2023-04-23T21:06:52.655Z,9.04
2023-04-23T21:09:19.507Z,9.00
2023-04-23T21:11:46.402Z,8.98
2023-04-23T21:14:13.234Z,8.94
2023-04-23T21:16:40.133Z,8.89
2023-04-23T21:19:06.994Z,8.86
2023-04-23T21:21:33.897Z,8.84
2023-04-23T21:24:01.139Z,8.85
2023-04-23T21:26:31.530Z,8.86
2023-04-23T21:28:58.661Z,8.89
2023-04-23T21:31:46.328Z,8.97
2023-04-23T21:34:15.052Z,9.04
2023-04-23T21:36:41.935Z,9.11
2023-04-23T21:39:09.247Z,9.12
2023-04-23T21:41:38.688Z,9.17
2023-04-23T21:44:05.660Z,9.18
2023-04-23T21:46:32.560Z,9.20
2023-04-23T21:48:59.490Z,9.19
2023-04-23T21:51:26.290Z,9.20
2023-04-23T21:53:53.086Z,9.22
2023-04-23T21:56:21.325Z,9.22
2023-04-23T21:58:48.135Z,9.23
2023-04-23T22:01:15.017Z,9.22
2023-04-23T22:03:46.465Z,9.23
2023-04-23T22:06:15.650Z,9.24
2023-04-23T22:08:44.798Z,9.24
2023-04-23T22:11:13.084Z,9.22
2023-04-23T22:13:39.933Z,9.21
2023-04-23T22:16:16.819Z,9.22
2023-04-23T22:18:54.284Z,9.21
2023-04-23T22:21:21.564Z,9.21
2023-04-23T22:23:48.600Z,9.20
2023-04-23T22:26:15.595Z,9.20
2023-04-23T22:28:43.721Z,9.21
2023-04-23T22:31:11.108Z,9.23
2023-04-23T22:33:38.082Z,9.28
2023-04-23T22:36:05.462Z,9.32
2023-04-23T22:38:32.717Z,9.35
2023-04-23T22:40:59.747Z,9.37
2023-04-23T22:43:26.538Z,9.37
2023-04-23T22:45:53.506Z,9.38
2023-04-23T22:48:21.268Z,9.39
2023-04-23T22:50:50.818Z,9.40
2023-04-23T22:53:19.317Z,9.39
2023-04-23T22:55:47.262Z,9.38
2023-04-23T22:58:14.328Z,9.39
2023-04-23T23:00:41.395Z,9.39
2023-04-23T23:03:08.391Z,9.42
2023-04-23T23:05:35.456Z,9.44
2023-04-23T23:08:02.627Z,9.42
2023-04-23T23:10:29.836Z,9.33
2023-04-23T23:12:56.803Z,9.27
2023-04-23T23:15:23.632Z,9.25
2023-04-23T23:17:51.084Z,9.25
2023-04-23T23:20:18.350Z,9.28
2023-04-23T23:22:45.301Z,9.34
2023-04-23T23:25:12.374Z,9.37
2023-04-23T23:27:39.196Z,9.43
2023-04-23T23:30:09.570Z,9.48
2023-04-23T23:32:36.663Z,9.50
2023-04-23T23:35:04.197Z,9.55
2023-04-23T23:37:31.061Z,9.56
2023-04-23T23:39:57.890Z,9.57
2023-04-23T23:42:24.811Z,9.58
2023-04-23T23:44:51.630Z,9.57
2023-04-23T23:47:18.542Z,9.57
2023-04-23T23:49:45.561Z,9.57
2023-04-23T23:52:12.423Z,9.56
2023-04-23T23:54:39.232Z,9.57
2023-04-23T23:57:06.103Z,9.58
2023-04-23T23:59:33.642Z,9.58
